sensor_id;sensor_type;location;lat;lon;timestamp;temperature;humidity
19172;DHT22;9718;52.200;21.052;2022-11-20T00:01:16;-4.90;99.90
19172;DHT22;9718;52.200;21.052;2022-11-20T00:03:45;-5.00;99.90
19172;DHT22;9718;52.200;21.052;2022-11-20T00:06:16;-5.00;99.90
19172;DHT22;9718;52.200;21.052;2022-11-20T00:08:45;-5.10;99.90
19172;DHT22;9718;52.200;21.052;2022-11-20T00:11:23;-5.20;99.90
19172;DHT22;9718;52.200;21.052;2022-11-20T00:13:53;-5.20;99.90
19172;DHT22;9718;52.200;21.052;2022-11-20T00:16:23;-5.30;99.90
19172;DHT22;9718;52.200;21.052;2022-11-20T00:18:52;-5.30;99.90
19172;DHT22;9718;52.200;21.052;2022-11-20T00:21:22;-5.30;99.90
19172;DHT22;9718;52.200;21.052;2022-11-20T00:23:53;-5.30;99.90
19172;DHT22;9718;52.200;21.052;2022-11-20T00:26:22;-5.30;99.90
19172;DHT22;9718;52.200;21.052;2022-11-20T00:28:56;-5.30;99.90
19172;DHT22;9718;52.200;21.052;2022-11-20T00:31:24;-5.30;99.90
19172;DHT22;9718;52.200;21.052;2022-11-20T00:33:52;-5.20;99.90
19172;DHT22;9718;52.200;21.052;2022-11-20T00:36:24;-5.20;99.90
19172;DHT22;9718;52.200;21.052;2022-11-20T00:38:56;-5.00;99.90
19172;DHT22;9718;52.200;21.052;2022-11-20T00:41:25;-4.90;99.90
19172;DHT22;9718;52.200;21.052;2022-11-20T00:43:54;-4.80;99.90
19172;DHT22;9718;52.200;21.052;2022-11-20T00:46:24;-4.70;99.90
19172;DHT22;9718;52.200;21.052;2022-11-20T00:48:53;-4.60;99.90
19172;DHT22;9718;52.200;21.052;2022-11-20T00:51:22;-4.50;99.90
19172;DHT22;9718;52.200;21.052;2022-11-20T00:53:50;-4.40;99.90
19172;DHT22;9718;52.200;21.052;2022-11-20T00:56:20;-4.40;99.90
19172;DHT22;9718;52.200;21.052;2022-11-20T00:58:48;-4.30;99.90
19172;DHT22;9718;52.200;21.052;2022-11-20T01:01:19;-4.20;99.90
19172;DHT22;9718;52.200;21.052;2022-11-20T01:03:48;-4.10;99.90
19172;DHT22;9718;52.200;21.052;2022-11-20T01:06:20;-4.10;99.90
19172;DHT22;9718;52.200;21.052;2022-11-20T01:08:49;-4.00;99.90
19172;DHT22;9718;52.200;21.052;2022-11-20T01:11:20;-4.00;99.90
19172;DHT22;9718;52.200;21.052;2022-11-20T01:13:51;-4.00;99.90
19172;DHT22;9718;52.200;21.052;2022-11-20T01:16:23;-4.20;99.90
19172;DHT22;9718;52.200;21.052;2022-11-20T01:18:53;-4.20;99.90
19172;DHT22;9718;52.200;21.052;2022-11-20T01:21:35;-4.40;99.90
19172;DHT22;9718;52.200;21.052;2022-11-20T01:24:05;-4.50;99.90
19172;DHT22;9718;52.200;21.052;2022-11-20T01:26:37;-4.50;99.90
19172;DHT22;9718;52.200;21.052;2022-11-20T01:29:07;-4.50;99.90
19172;DHT22;9718;52.200;21.052;2022-11-20T01:31:36;-4.60;99.90
19172;DHT22;9718;52.200;21.052;2022-11-20T01:34:09;-4.60;99.90
19172;DHT22;9718;52.200;21.052;2022-11-20T01:36:38;-4.70;99.90
19172;DHT22;9718;52.200;21.052;2022-11-20T01:39:14;-4.70;99.90
19172;DHT22;9718;52.200;21.052;2022-11-20T01:41:43;-4.80;99.90
19172;DHT22;9718;52.200;21.052;2022-11-20T01:44:55;-4.70;99.90
19172;DHT22;9718;52.200;21.052;2022-11-20T01:50:18;-4.60;99.90
19172;DHT22;9718;52.200;21.052;2022-11-20T01:53:01;-4.50;99.90
19172;DHT22;9718;52.200;21.052;2022-11-20T01:55:36;-4.30;99.90
19172;DHT22;9718;52.200;21.052;2022-11-20T01:58:05;-4.40;99.90
19172;DHT22;9718;52.200;21.052;2022-11-20T02:00:33;-4.40;99.90
19172;DHT22;9718;52.200;21.052;2022-11-20T02:03:12;-4.40;99.90
19172;DHT22;9718;52.200;21.052;2022-11-20T02:06:00;-4.40;99.90
19172;DHT22;9718;52.200;21.052;2022-11-20T02:08:29;-4.40;99.90
19172;DHT22;9718;52.200;21.052;2022-11-20T02:11:00;-4.30;99.90
19172;DHT22;9718;52.200;21.052;2022-11-20T02:13:28;-4.20;99.90
19172;DHT22;9718;52.200;21.052;2022-11-20T02:18:51;-4.10;99.90
19172;DHT22;9718;52.200;21.052;2022-11-20T02:21:42;-4.20;99.90
19172;DHT22;9718;52.200;21.052;2022-11-20T02:24:17;-4.20;99.90
19172;DHT22;9718;52.200;21.052;2022-11-20T02:26:53;-4.20;99.90
19172;DHT22;9718;52.200;21.052;2022-11-20T02:29:51;-4.30;99.90
19172;DHT22;9718;52.200;21.052;2022-11-20T02:32:33;-4.30;99.90
19172;DHT22;9718;52.200;21.052;2022-11-20T02:37:50;-4.30;99.90
19172;DHT22;9718;52.200;21.052;2022-11-20T02:40:19;-4.30;99.90
19172;DHT22;9718;52.200;21.052;2022-11-20T02:42:52;-4.30;99.90
19172;DHT22;9718;52.200;21.052;2022-11-20T02:45:21;-4.20;99.90
19172;DHT22;9718;52.200;21.052;2022-11-20T02:47:51;-4.20;99.90
19172;DHT22;9718;52.200;21.052;2022-11-20T02:50:19;-4.30;99.90
19172;DHT22;9718;52.200;21.052;2022-11-20T02:52:47;-4.30;99.90
19172;DHT22;9718;52.200;21.052;2022-11-20T02:55:14;-4.30;99.90
19172;DHT22;9718;52.200;21.052;2022-11-20T02:57:42;-4.30;99.90
19172;DHT22;9718;52.200;21.052;2022-11-20T03:00:11;-4.20;99.90
19172;DHT22;9718;52.200;21.052;2022-11-20T03:02:38;-4.20;99.90
19172;DHT22;9718;52.200;21.052;2022-11-20T03:05:08;-4.10;99.90
19172;DHT22;9718;52.200;21.052;2022-11-20T03:07:36;-4.20;99.90
19172;DHT22;9718;52.200;21.052;2022-11-20T03:10:05;-4.20;99.90
19172;DHT22;9718;52.200;21.052;2022-11-20T03:12:33;-4.20;99.90
19172;DHT22;9718;52.200;21.052;2022-11-20T03:15:00;-4.20;99.90
19172;DHT22;9718;52.200;21.052;2022-11-20T03:17:28;-4.30;99.90
19172;DHT22;9718;52.200;21.052;2022-11-20T03:19:57;-4.30;99.90
19172;DHT22;9718;52.200;21.052;2022-11-20T03:22:24;-4.40;99.90
19172;DHT22;9718;52.200;21.052;2022-11-20T03:24:52;-4.40;99.90
19172;DHT22;9718;52.200;21.052;2022-11-20T03:27:20;-4.40;99.90
19172;DHT22;9718;52.200;21.052;2022-11-20T03:29:49;-4.40;99.90
19172;DHT22;9718;52.200;21.052;2022-11-20T03:32:17;-4.40;99.90
19172;DHT22;9718;52.200;21.052;2022-11-20T03:34:44;-4.50;99.90
19172;DHT22;9718;52.200;21.052;2022-11-20T03:37:12;-4.50;99.90
19172;DHT22;9718;52.200;21.052;2022-11-20T03:39:40;-4.50;99.90
19172;DHT22;9718;52.200;21.052;2022-11-20T03:42:09;-4.60;99.90
19172;DHT22;9718;52.200;21.052;2022-11-20T03:44:56;-4.60;99.90
19172;DHT22;9718;52.200;21.052;2022-11-20T03:47:25;-4.70;99.90
19172;DHT22;9718;52.200;21.052;2022-11-20T03:49:52;-4.70;99.90
19172;DHT22;9718;52.200;21.052;2022-11-20T03:52:19;-4.70;99.90
19172;DHT22;9718;52.200;21.052;2022-11-20T03:54:47;-4.80;99.90
19172;DHT22;9718;52.200;21.052;2022-11-20T03:57:14;-4.80;99.90
19172;DHT22;9718;52.200;21.052;2022-11-20T03:59:43;-4.80;99.90
19172;DHT22;9718;52.200;21.052;2022-11-20T04:02:10;-4.90;99.90
19172;DHT22;9718;52.200;21.052;2022-11-20T04:04:37;-4.90;99.90
19172;DHT22;9718;52.200;21.052;2022-11-20T04:07:05;-5.00;99.90
19172;DHT22;9718;52.200;21.052;2022-11-20T04:09:34;-5.00;99.90
19172;DHT22;9718;52.200;21.052;2022-11-20T04:12:02;-5.10;99.90
19172;DHT22;9718;52.200;21.052;2022-11-20T04:14:29;-5.10;99.90
19172;DHT22;9718;52.200;21.052;2022-11-20T04:16:57;-5.20;99.90
19172;DHT22;9718;52.200;21.052;2022-11-20T04:19:24;-5.20;99.90
19172;DHT22;9718;52.200;21.052;2022-11-20T04:21:52;-5.10;99.90
19172;DHT22;9718;52.200;21.052;2022-11-20T04:24:19;-5.20;99.90
19172;DHT22;9718;52.200;21.052;2022-11-20T04:26:47;-5.20;99.90
19172;DHT22;9718;52.200;21.052;2022-11-20T04:29:14;-5.30;99.90
19172;DHT22;9718;52.200;21.052;2022-11-20T04:31:43;-5.30;99.90
19172;DHT22;9718;52.200;21.052;2022-11-20T04:34:11;-5.40;99.90
19172;DHT22;9718;52.200;21.052;2022-11-20T04:36:41;-5.40;99.90
19172;DHT22;9718;52.200;21.052;2022-11-20T04:39:14;-5.50;99.90
19172;DHT22;9718;52.200;21.052;2022-11-20T04:41:46;-5.50;99.90
19172;DHT22;9718;52.200;21.052;2022-11-20T04:44:13;-5.50;99.90
19172;DHT22;9718;52.200;21.052;2022-11-20T04:46:42;-5.50;99.90
19172;DHT22;9718;52.200;21.052;2022-11-20T04:49:12;-5.50;99.90
19172;DHT22;9718;52.200;21.052;2022-11-20T04:51:40;-5.50;99.90
19172;DHT22;9718;52.200;21.052;2022-11-20T04:54:07;-5.50;99.90
19172;DHT22;9718;52.200;21.052;2022-11-20T04:56:35;-5.50;99.90
19172;DHT22;9718;52.200;21.052;2022-11-20T04:59:04;-5.60;99.90
19172;DHT22;9718;52.200;21.052;2022-11-20T05:01:31;-5.60;99.90
19172;DHT22;9718;52.200;21.052;2022-11-20T05:04:00;-5.60;99.90
19172;DHT22;9718;52.200;21.052;2022-11-20T05:06:27;-5.60;99.90
19172;DHT22;9718;52.200;21.052;2022-11-20T05:08:55;-5.60;99.90
19172;DHT22;9718;52.200;21.052;2022-11-20T05:11:23;-5.70;99.90
19172;DHT22;9718;52.200;21.052;2022-11-20T05:13:51;-5.70;99.90
19172;DHT22;9718;52.200;21.052;2022-11-20T05:16:22;-5.70;99.90
19172;DHT22;9718;52.200;21.052;2022-11-20T05:18:51;-5.80;99.90
19172;DHT22;9718;52.200;21.052;2022-11-20T05:21:19;-5.70;99.90
19172;DHT22;9718;52.200;21.052;2022-11-20T05:23:47;-5.80;99.90
19172;DHT22;9718;52.200;21.052;2022-11-20T05:26:19;-5.80;99.90
19172;DHT22;9718;52.200;21.052;2022-11-20T05:28:50;-5.80;99.90
19172;DHT22;9718;52.200;21.052;2022-11-20T05:31:20;-5.80;99.90
19172;DHT22;9718;52.200;21.052;2022-11-20T05:33:53;-5.90;99.90
19172;DHT22;9718;52.200;21.052;2022-11-20T05:36:22;-5.90;99.90
19172;DHT22;9718;52.200;21.052;2022-11-20T05:38:52;-5.90;99.90
19172;DHT22;9718;52.200;21.052;2022-11-20T05:41:27;-6.00;99.90
19172;DHT22;9718;52.200;21.052;2022-11-20T05:43:56;-6.00;99.90
19172;DHT22;9718;52.200;21.052;2022-11-20T05:46:26;-6.00;99.90
19172;DHT22;9718;52.200;21.052;2022-11-20T05:48:56;-6.00;99.90
19172;DHT22;9718;52.200;21.052;2022-11-20T05:51:25;-6.00;99.90
19172;DHT22;9718;52.200;21.052;2022-11-20T05:53:57;-6.10;99.90
19172;DHT22;9718;52.200;21.052;2022-11-20T05:56:27;-6.10;99.90
19172;DHT22;9718;52.200;21.052;2022-11-20T05:58:54;-6.10;99.90
19172;DHT22;9718;52.200;21.052;2022-11-20T06:01:24;-6.20;99.90
19172;DHT22;9718;52.200;21.052;2022-11-20T06:03:53;-6.20;99.90
19172;DHT22;9718;52.200;21.052;2022-11-20T06:06:21;-6.30;99.90
19172;DHT22;9718;52.200;21.052;2022-11-20T06:08:48;-6.30;99.90
19172;DHT22;9718;52.200;21.052;2022-11-20T06:11:17;-6.40;99.90
19172;DHT22;9718;52.200;21.052;2022-11-20T06:13:45;-6.40;99.90
19172;DHT22;9718;52.200;21.052;2022-11-20T06:16:17;-6.40;99.90
19172;DHT22;9718;52.200;21.052;2022-11-20T06:18:45;-6.30;99.90
19172;DHT22;9718;52.200;21.052;2022-11-20T06:21:20;-6.30;99.90
19172;DHT22;9718;52.200;21.052;2022-11-20T06:23:49;-6.30;99.90
19172;DHT22;9718;52.200;21.052;2022-11-20T06:26:25;-6.20;99.90
19172;DHT22;9718;52.200;21.052;2022-11-20T06:28:54;-6.20;99.90
19172;DHT22;9718;52.200;21.052;2022-11-20T06:31:25;-6.00;99.90
19172;DHT22;9718;52.200;21.052;2022-11-20T06:33:53;-6.00;99.90
19172;DHT22;9718;52.200;21.052;2022-11-20T06:36:22;-5.90;99.90
19172;DHT22;9718;52.200;21.052;2022-11-20T06:38:50;-5.80;99.90
19172;DHT22;9718;52.200;21.052;2022-11-20T06:41:19;-5.80;99.90
19172;DHT22;9718;52.200;21.052;2022-11-20T06:43:47;-5.70;99.90
19172;DHT22;9718;52.200;21.052;2022-11-20T06:46:16;-5.60;99.90
19172;DHT22;9718;52.200;21.052;2022-11-20T06:48:48;-5.60;99.90
19172;DHT22;9718;52.200;21.052;2022-11-20T06:51:16;-5.50;99.90
19172;DHT22;9718;52.200;21.052;2022-11-20T06:53:44;-5.50;99.90
19172;DHT22;9718;52.200;21.052;2022-11-20T06:56:12;-5.40;99.90
19172;DHT22;9718;52.200;21.052;2022-11-20T06:58:39;-5.30;99.90
19172;DHT22;9718;52.200;21.052;2022-11-20T07:01:10;-5.20;99.90
19172;DHT22;9718;52.200;21.052;2022-11-20T07:03:39;-5.10;99.90
19172;DHT22;9718;52.200;21.052;2022-11-20T07:06:08;-5.00;99.90
19172;DHT22;9718;52.200;21.052;2022-11-20T07:08:35;-5.00;99.90
19172;DHT22;9718;52.200;21.052;2022-11-20T07:11:05;-4.90;99.90
19172;DHT22;9718;52.200;21.052;2022-11-20T07:13:33;-4.80;99.90
19172;DHT22;9718;52.200;21.052;2022-11-20T07:16:03;-4.70;99.90
19172;DHT22;9718;52.200;21.052;2022-11-20T07:18:30;-4.70;99.90
19172;DHT22;9718;52.200;21.052;2022-11-20T07:21:03;-4.50;99.90
19172;DHT22;9718;52.200;21.052;2022-11-20T07:23:33;-4.40;99.90
19172;DHT22;9718;52.200;21.052;2022-11-20T07:26:05;-4.30;99.90
19172;DHT22;9718;52.200;21.052;2022-11-20T07:28:33;-4.20;99.90
19172;DHT22;9718;52.200;21.052;2022-11-20T07:31:00;-4.10;99.90
19172;DHT22;9718;52.200;21.052;2022-11-20T07:33:28;-4.10;99.90
19172;DHT22;9718;52.200;21.052;2022-11-20T07:35:57;-3.90;99.90
19172;DHT22;9718;52.200;21.052;2022-11-20T07:38:25;-3.80;99.90
19172;DHT22;9718;52.200;21.052;2022-11-20T07:40:57;-3.70;99.90
19172;DHT22;9718;52.200;21.052;2022-11-20T07:43:25;-3.60;99.90
19172;DHT22;9718;52.200;21.052;2022-11-20T07:45:55;-3.40;99.90
19172;DHT22;9718;52.200;21.052;2022-11-20T07:48:23;-3.10;99.90
19172;DHT22;9718;52.200;21.052;2022-11-20T07:50:58;-2.60;99.90
19172;DHT22;9718;52.200;21.052;2022-11-20T07:53:25;-2.30;99.90
19172;DHT22;9718;52.200;21.052;2022-11-20T07:55:53;-2.00;99.90
19172;DHT22;9718;52.200;21.052;2022-11-20T07:58:21;-1.70;99.90
19172;DHT22;9718;52.200;21.052;2022-11-20T08:00:49;-1.90;99.90
19172;DHT22;9718;52.200;21.052;2022-11-20T08:03:16;-1.50;99.90
19172;DHT22;9718;52.200;21.052;2022-11-20T08:05:51;-1.30;99.90
19172;DHT22;9718;52.200;21.052;2022-11-20T08:08:19;-1.40;99.90
19172;DHT22;9718;52.200;21.052;2022-11-20T08:10:47;-1.60;99.90
19172;DHT22;9718;52.200;21.052;2022-11-20T08:13:14;-1.70;99.90
19172;DHT22;9718;52.200;21.052;2022-11-20T08:16:01;-1.80;99.90
19172;DHT22;9718;52.200;21.052;2022-11-20T08:18:28;-1.40;99.90
19172;DHT22;9718;52.200;21.052;2022-11-20T08:21:04;-1.10;99.90
19172;DHT22;9718;52.200;21.052;2022-11-20T08:23:32;-0.70;99.90
19172;DHT22;9718;52.200;21.052;2022-11-20T08:26:00;-0.50;99.90
19172;DHT22;9718;52.200;21.052;2022-11-20T08:28:27;-0.50;99.90
19172;DHT22;9718;52.200;21.052;2022-11-20T08:31:00;-0.30;99.90
19172;DHT22;9718;52.200;21.052;2022-11-20T08:33:28;0.00;99.90
19172;DHT22;9718;52.200;21.052;2022-11-20T08:36:03;-0.10;99.90
19172;DHT22;9718;52.200;21.052;2022-11-20T08:38:33;-0.10;99.90
19172;DHT22;9718;52.200;21.052;2022-11-20T08:41:02;0.20;99.90
19172;DHT22;9718;52.200;21.052;2022-11-20T08:43:49;0.50;99.90
19172;DHT22;9718;52.200;21.052;2022-11-20T08:46:17;0.70;99.90
19172;DHT22;9718;52.200;21.052;2022-11-20T08:48:45;1.10;99.90
19172;DHT22;9718;52.200;21.052;2022-11-20T08:51:14;1.20;99.90
19172;DHT22;9718;52.200;21.052;2022-11-20T08:53:42;1.40;99.90
19172;DHT22;9718;52.200;21.052;2022-11-20T08:56:10;1.30;99.90
19172;DHT22;9718;52.200;21.052;2022-11-20T08:58:39;1.30;99.90
19172;DHT22;9718;52.200;21.052;2022-11-20T09:01:27;1.20;99.90
19172;DHT22;9718;52.200;21.052;2022-11-20T09:03:57;1.60;99.90
19172;DHT22;9718;52.200;21.052;2022-11-20T09:06:27;1.80;99.90
19172;DHT22;9718;52.200;21.052;2022-11-20T09:08:55;1.70;99.90
19172;DHT22;9718;52.200;21.052;2022-11-20T09:11:36;1.90;99.90
19172;DHT22;9718;52.200;21.052;2022-11-20T09:14:04;2.00;99.90
19172;DHT22;9718;52.200;21.052;2022-11-20T09:16:32;1.60;99.90
19172;DHT22;9718;52.200;21.052;2022-11-20T09:19:00;1.40;99.90
19172;DHT22;9718;52.200;21.052;2022-11-20T09:21:48;1.30;99.90
19172;DHT22;9718;52.200;21.052;2022-11-20T09:24:15;1.30;99.90
19172;DHT22;9718;52.200;21.052;2022-11-20T09:26:43;1.50;99.90
19172;DHT22;9718;52.200;21.052;2022-11-20T09:29:11;1.70;99.90
19172;DHT22;9718;52.200;21.052;2022-11-20T09:31:39;2.00;99.90
19172;DHT22;9718;52.200;21.052;2022-11-20T09:34:06;1.80;99.90
19172;DHT22;9718;52.200;21.052;2022-11-20T09:36:34;2.00;99.90
19172;DHT22;9718;52.200;21.052;2022-11-20T09:39:01;2.00;99.90
19172;DHT22;9718;52.200;21.052;2022-11-20T09:53:08;3.00;99.90
19172;DHT22;9718;52.200;21.052;2022-11-20T09:55:37;2.70;99.90
19172;DHT22;9718;52.200;21.052;2022-11-20T09:58:07;2.60;99.90
19172;DHT22;9718;52.200;21.052;2022-11-20T10:00:40;2.80;99.90
19172;DHT22;9718;52.200;21.052;2022-11-20T10:03:17;2.90;99.90
19172;DHT22;9718;52.200;21.052;2022-11-20T10:05:53;2.30;99.90
19172;DHT22;9718;52.200;21.052;2022-11-20T10:08:22;2.20;99.90
19172;DHT22;9718;52.200;21.052;2022-11-20T10:11:13;2.00;99.90
19172;DHT22;9718;52.200;21.052;2022-11-20T10:30:46;2.90;99.90
19172;DHT22;9718;52.200;21.052;2022-11-20T10:33:22;3.20;99.90
19172;DHT22;9718;52.200;21.052;2022-11-20T10:36:03;3.00;99.90
19172;DHT22;9718;52.200;21.052;2022-11-20T10:38:57;2.80;99.90
19172;DHT22;9718;52.200;21.052;2022-11-20T10:41:40;2.90;99.90
19172;DHT22;9718;52.200;21.052;2022-11-20T10:44:20;2.80;99.90
19172;DHT22;9718;52.200;21.052;2022-11-20T10:47:17;3.00;99.90
19172;DHT22;9718;52.200;21.052;2022-11-20T10:49:53;3.40;99.90
19172;DHT22;9718;52.200;21.052;2022-11-20T10:52:47;3.80;99.90
19172;DHT22;9718;52.200;21.052;2022-11-20T11:00:31;4.30;99.90
19172;DHT22;9718;52.200;21.052;2022-11-20T11:02:59;4.20;99.90
19172;DHT22;9718;52.200;21.052;2022-11-20T11:08:03;3.90;99.90
19172;DHT22;9718;52.200;21.052;2022-11-20T11:13:26;3.70;99.90
19172;DHT22;9718;52.200;21.052;2022-11-20T11:15:54;4.00;99.90
19172;DHT22;9718;52.200;21.052;2022-11-20T11:18:31;4.20;99.90
19172;DHT22;9718;52.200;21.052;2022-11-20T11:21:04;4.60;99.90
19172;DHT22;9718;52.200;21.052;2022-11-20T11:23:39;5.00;99.90
19172;DHT22;9718;52.200;21.052;2022-11-20T11:26:21;5.00;99.90
19172;DHT22;9718;52.200;21.052;2022-11-20T11:29:00;4.80;99.90
19172;DHT22;9718;52.200;21.052;2022-11-20T11:31:33;4.80;99.90
19172;DHT22;9718;52.200;21.052;2022-11-20T11:36:39;5.00;99.90
19172;DHT22;9718;52.200;21.052;2022-11-20T11:39:13;5.00;99.90
19172;DHT22;9718;52.200;21.052;2022-11-20T11:41:44;5.20;99.90
19172;DHT22;9718;52.200;21.052;2022-11-20T11:44:31;5.10;99.90
19172;DHT22;9718;52.200;21.052;2022-11-20T11:47:26;4.90;99.90
19172;DHT22;9718;52.200;21.052;2022-11-20T11:52:45;4.50;99.90
19172;DHT22;9718;52.200;21.052;2022-11-20T11:58:48;4.70;99.90
19172;DHT22;9718;52.200;21.052;2022-11-20T12:01:51;4.50;99.90
19172;DHT22;9718;52.200;21.052;2022-11-20T12:04:43;4.30;99.90
19172;DHT22;9718;52.200;21.052;2022-11-20T12:10:54;4.10;99.90
19172;DHT22;9718;52.200;21.052;2022-11-20T12:16:17;4.20;99.90
19172;DHT22;9718;52.200;21.052;2022-11-20T12:18:51;4.20;99.90
19172;DHT22;9718;52.200;21.052;2022-11-20T12:21:23;3.80;99.90
19172;DHT22;9718;52.200;21.052;2022-11-20T12:24:09;3.80;99.90
19172;DHT22;9718;52.200;21.052;2022-11-20T12:32:22;3.90;99.90
19172;DHT22;9718;52.200;21.052;2022-11-20T12:38:08;4.00;99.90
19172;DHT22;9718;52.200;21.052;2022-11-20T12:43:44;3.70;99.90
19172;DHT22;9718;52.200;21.052;2022-11-20T12:46:46;3.50;99.90
19172;DHT22;9718;52.200;21.052;2022-11-20T12:52:20;3.50;99.90
19172;DHT22;9718;52.200;21.052;2022-11-20T13:00:20;3.50;99.90
19172;DHT22;9718;52.200;21.052;2022-11-20T13:08:23;3.10;99.90
19172;DHT22;9718;52.200;21.052;2022-11-20T13:11:07;2.80;99.90
19172;DHT22;9718;52.200;21.052;2022-11-20T13:17:24;2.00;99.90
19172;DHT22;9718;52.200;21.052;2022-11-20T13:19:56;1.80;99.90
19172;DHT22;9718;52.200;21.052;2022-11-20T13:22:27;1.70;99.90
19172;DHT22;9718;52.200;21.052;2022-11-20T13:24:55;1.60;99.90
19172;DHT22;9718;52.200;21.052;2022-11-20T13:27:24;1.50;99.90
19172;DHT22;9718;52.200;21.052;2022-11-20T13:30:12;1.40;99.90
19172;DHT22;9718;52.200;21.052;2022-11-20T13:33:05;1.30;99.90
19172;DHT22;9718;52.200;21.052;2022-11-20T13:35:42;1.30;99.90
19172;DHT22;9718;52.200;21.052;2022-11-20T13:38:12;1.10;99.90
19172;DHT22;9718;52.200;21.052;2022-11-20T13:40:58;1.10;99.90
19172;DHT22;9718;52.200;21.052;2022-11-20T13:43:51;1.00;99.90
19172;DHT22;9718;52.200;21.052;2022-11-20T13:46:19;0.90;99.90
19172;DHT22;9718;52.200;21.052;2022-11-20T13:48:52;0.80;99.90
19172;DHT22;9718;52.200;21.052;2022-11-20T13:57:19;0.60;99.90
19172;DHT22;9718;52.200;21.052;2022-11-20T13:59:59;0.40;99.90
19172;DHT22;9718;52.200;21.052;2022-11-20T14:02:30;0.40;99.90
19172;DHT22;9718;52.200;21.052;2022-11-20T14:04:59;0.30;99.90
19172;DHT22;9718;52.200;21.052;2022-11-20T14:07:36;0.20;99.90
19172;DHT22;9718;52.200;21.052;2022-11-20T14:10:18;0.20;99.90
19172;DHT22;9718;52.200;21.052;2022-11-20T14:12:46;0.10;99.90
19172;DHT22;9718;52.200;21.052;2022-11-20T14:15:32;0.00;99.90
19172;DHT22;9718;52.200;21.052;2022-11-20T14:18:14;-0.10;99.90
19172;DHT22;9718;52.200;21.052;2022-11-20T14:20:42;-0.10;99.90
19172;DHT22;9718;52.200;21.052;2022-11-20T14:23:24;-0.10;99.90
19172;DHT22;9718;52.200;21.052;2022-11-20T14:25:56;-0.20;99.90
19172;DHT22;9718;52.200;21.052;2022-11-20T14:28:30;-0.20;99.90
19172;DHT22;9718;52.200;21.052;2022-11-20T14:30:58;-0.20;99.90
19172;DHT22;9718;52.200;21.052;2022-11-20T14:33:27;-0.20;99.90
19172;DHT22;9718;52.200;21.052;2022-11-20T14:35:56;-0.20;99.90
19172;DHT22;9718;52.200;21.052;2022-11-20T14:38:27;-0.30;99.90
19172;DHT22;9718;52.200;21.052;2022-11-20T14:41:19;-0.20;99.90
19172;DHT22;9718;52.200;21.052;2022-11-20T14:43:57;-0.30;99.90
19172;DHT22;9718;52.200;21.052;2022-11-20T14:46:25;-0.30;99.90
19172;DHT22;9718;52.200;21.052;2022-11-20T14:48:55;-0.40;99.90
19172;DHT22;9718;52.200;21.052;2022-11-20T14:51:35;-0.40;99.90
19172;DHT22;9718;52.200;21.052;2022-11-20T14:56:40;-0.40;99.90
19172;DHT22;9718;52.200;21.052;2022-11-20T14:59:09;-0.40;99.90
19172;DHT22;9718;52.200;21.052;2022-11-20T15:01:36;-0.30;99.90
19172;DHT22;9718;52.200;21.052;2022-11-20T15:04:10;-0.40;99.90
19172;DHT22;9718;52.200;21.052;2022-11-20T15:06:52;-0.40;99.90
19172;DHT22;9718;52.200;21.052;2022-11-20T15:09:21;-0.50;99.90
19172;DHT22;9718;52.200;21.052;2022-11-20T15:12:02;-0.50;99.90
19172;DHT22;9718;52.200;21.052;2022-11-20T15:14:31;-0.50;99.90
19172;DHT22;9718;52.200;21.052;2022-11-20T15:17:01;-0.50;99.90
19172;DHT22;9718;52.200;21.052;2022-11-20T15:19:29;-0.60;99.90
19172;DHT22;9718;52.200;21.052;2022-11-20T15:21:56;-0.70;99.90
19172;DHT22;9718;52.200;21.052;2022-11-20T15:24:25;-0.70;99.90
19172;DHT22;9718;52.200;21.052;2022-11-20T15:26:52;-0.80;99.90
19172;DHT22;9718;52.200;21.052;2022-11-20T15:29:22;-0.70;99.90
19172;DHT22;9718;52.200;21.052;2022-11-20T15:31:50;-0.80;99.90
19172;DHT22;9718;52.200;21.052;2022-11-20T15:34:19;-0.80;99.90
19172;DHT22;9718;52.200;21.052;2022-11-20T15:36:47;-0.80;99.90
19172;DHT22;9718;52.200;21.052;2022-11-20T15:39:15;-0.90;99.90
19172;DHT22;9718;52.200;21.052;2022-11-20T15:41:42;-0.90;99.90
19172;DHT22;9718;52.200;21.052;2022-11-20T15:44:10;-1.00;99.90
19172;DHT22;9718;52.200;21.052;2022-11-20T15:46:40;-1.10;99.90
19172;DHT22;9718;52.200;21.052;2022-11-20T15:49:13;-1.20;99.90
19172;DHT22;9718;52.200;21.052;2022-11-20T15:51:43;-1.30;99.90
19172;DHT22;9718;52.200;21.052;2022-11-20T15:54:14;-1.30;99.90
19172;DHT22;9718;52.200;21.052;2022-11-20T15:56:42;-1.40;99.90
19172;DHT22;9718;52.200;21.052;2022-11-20T15:59:11;-1.50;99.90
19172;DHT22;9718;52.200;21.052;2022-11-20T16:01:38;-1.60;99.90
19172;DHT22;9718;52.200;21.052;2022-11-20T16:04:14;-1.70;99.90
19172;DHT22;9718;52.200;21.052;2022-11-20T16:06:41;-1.70;99.90
19172;DHT22;9718;52.200;21.052;2022-11-20T16:09:09;-1.80;99.90
19172;DHT22;9718;52.200;21.052;2022-11-20T16:11:37;-1.90;99.90
19172;DHT22;9718;52.200;21.052;2022-11-20T16:14:05;-1.90;99.90
19172;DHT22;9718;52.200;21.052;2022-11-20T16:16:52;-2.00;99.90
19172;DHT22;9718;52.200;21.052;2022-11-20T16:19:21;-2.00;99.90
19172;DHT22;9718;52.200;21.052;2022-11-20T16:21:48;-2.00;99.90
19172;DHT22;9718;52.200;21.052;2022-11-20T16:24:20;-2.00;99.90
19172;DHT22;9718;52.200;21.052;2022-11-20T16:26:48;-2.00;99.90
19172;DHT22;9718;52.200;21.052;2022-11-20T16:29:16;-2.00;99.90
19172;DHT22;9718;52.200;21.052;2022-11-20T16:31:43;-2.00;99.90
19172;DHT22;9718;52.200;21.052;2022-11-20T16:34:11;-1.90;99.90
19172;DHT22;9718;52.200;21.052;2022-11-20T16:36:40;-1.90;99.90
19172;DHT22;9718;52.200;21.052;2022-11-20T16:39:08;-1.80;99.90
19172;DHT22;9718;52.200;21.052;2022-11-20T16:41:36;-1.80;99.90
19172;DHT22;9718;52.200;21.052;2022-11-20T16:44:09;-1.70;99.90
19172;DHT22;9718;52.200;21.052;2022-11-20T16:46:37;-1.60;99.90
19172;DHT22;9718;52.200;21.052;2022-11-20T16:49:12;-1.60;99.90
19172;DHT22;9718;52.200;21.052;2022-11-20T16:51:40;-1.50;99.90
19172;DHT22;9718;52.200;21.052;2022-11-20T16:54:08;-1.40;99.90
19172;DHT22;9718;52.200;21.052;2022-11-20T16:56:36;-1.40;99.90
19172;DHT22;9718;52.200;21.052;2022-11-20T16:59:04;-1.40;99.90
19172;DHT22;9718;52.200;21.052;2022-11-20T17:01:32;-1.30;99.90
19172;DHT22;9718;52.200;21.052;2022-11-20T17:04:03;-1.20;99.90
19172;DHT22;9718;52.200;21.052;2022-11-20T17:06:33;-1.20;99.90
19172;DHT22;9718;52.200;21.052;2022-11-20T17:09:02;-1.20;99.90
19172;DHT22;9718;52.200;21.052;2022-11-20T17:11:30;-1.10;99.90
19172;DHT22;9718;52.200;21.052;2022-11-20T17:13:57;-1.20;99.90
19172;DHT22;9718;52.200;21.052;2022-11-20T17:16:34;-1.10;99.90
19172;DHT22;9718;52.200;21.052;2022-11-20T17:19:02;-1.10;99.90
19172;DHT22;9718;52.200;21.052;2022-11-20T17:21:33;-1.10;99.90
19172;DHT22;9718;52.200;21.052;2022-11-20T17:24:11;-1.10;99.90
19172;DHT22;9718;52.200;21.052;2022-11-20T17:26:41;-1.20;99.90
19172;DHT22;9718;52.200;21.052;2022-11-20T17:29:12;-1.30;99.90
19172;DHT22;9718;52.200;21.052;2022-11-20T17:31:40;-1.40;99.90
19172;DHT22;9718;52.200;21.052;2022-11-20T17:34:13;-1.60;99.90
19172;DHT22;9718;52.200;21.052;2022-11-20T17:36:41;-1.70;99.90
19172;DHT22;9718;52.200;21.052;2022-11-20T17:39:13;-1.80;99.90
19172;DHT22;9718;52.200;21.052;2022-11-20T17:41:41;-1.90;99.90
19172;DHT22;9718;52.200;21.052;2022-11-20T17:44:09;-2.00;99.90